
Distance (Route):
Temperature : -16.1°C
Humidity : 0%
Pressure : 0hPa| Receiver | Frames | First received | Last received |
|---|---|---|---|
| WB7NNF | 373 | 2026-09-02 17:12:50 | 2026-09-02 19:29:04 |
| Receiver | Date | Latitude | Longitude | Direction | Speed | Altitude | Climb | Temperature | Humidity | Pressure | Voltage | Killtimer | Uptime | BKT | XDATA |
|---|---|---|---|---|---|---|---|---|---|---|---|---|---|---|---|
| WB7NNF | 2026-09-02 19:29:04 | 48.47750 | -117.57696 | 341° | 55km/h | 5722m | -8.0m/s | -16.1°C | 0% | 0hPa | 0V | 00:00:00 | 00:00:00 | 00:00:00 | |
| WB7NNF | 2026-09-02 19:28:43 | 48.47484 | -117.57524 | 338° | 60km/h | 5893m | -7.7m/s | -17.1°C | 0% | 0hPa | 0V | 00:00:00 | 00:00:00 | 00:00:00 | |
| WB7NNF | 2026-09-02 19:28:22 | 48.47185 | -117.57363 | 342° | 57km/h | 6062m | -7.8m/s | -18.2°C | 0% | 0hPa | 0V | 00:00:00 | 00:00:00 | 00:00:00 | |
| WB7NNF | 2026-09-02 19:27:59 | 48.46865 | -117.57179 | 338° | 60km/h | 6246m | -7.9m/s | -19.6°C | 0% | 0hPa | 0V | 00:00:00 | 00:00:00 | 00:00:00 | |
| WB7NNF | 2026-09-02 19:27:25 | 48.46413 | -117.56838 | 332° | 58km/h | 6514m | -7.6m/s | -21.5°C | 0% | 0hPa | 0V | 00:00:00 | 00:00:00 | 00:00:00 | |
| WB7NNF | 2026-09-02 19:27:03 | 48.46113 | -117.56596 | 335° | 64km/h | 6688m | -7.7m/s | -22.6°C | 0% | 0hPa | 0V | 00:00:00 | 00:00:00 | 00:00:00 | |
| WB7NNF | 2026-09-02 19:26:42 | 48.45804 | -117.56379 | 335° | 66km/h | 6855m | -7.7m/s | -23.8°C | 0% | 0hPa | 0V | 00:00:00 | 00:00:00 | 00:00:00 | |
| WB7NNF | 2026-09-02 19:26:21 | 48.45483 | -117.56154 | 335° | 73km/h | 7013m | -7.8m/s | -25.0°C | 0% | 0hPa | 0V | 00:00:00 | 00:00:00 | 00:00:00 | |
| WB7NNF | 2026-09-02 19:26:01 | 48.45138 | -117.55918 | 335° | 69km/h | 7178m | -8.1m/s | -26.2°C | 0% | 0hPa | 0V | 00:00:00 | 00:00:00 | 00:00:00 | |
| WB7NNF | 2026-09-02 19:25:39 | 48.44814 | -117.55666 | 332° | 69km/h | 7338m | -7.4m/s | -27.5°C | 0% | 0hPa | 0V | 00:00:00 | 00:00:00 | 00:00:00 | |
| WB7NNF | 2026-09-02 19:25:18 | 48.44468 | -117.55406 | 336° | 68km/h | 7494m | -7.2m/s | -28.7°C | 0% | 0hPa | 0V | 00:00:00 | 00:00:00 | 00:00:00 | |
| WB7NNF | 2026-09-02 19:24:57 | 48.44151 | -117.55206 | 340° | 68km/h | 7629m | -5.4m/s | -29.7°C | 0% | 0hPa | 0V | 00:00:00 | 00:00:00 | 00:00:00 | |
| WB7NNF | 2026-09-02 19:24:37 | 48.43823 | -117.55014 | 339° | 66km/h | 7733m | -4.8m/s | -30.5°C | 0% | 0hPa | 0V | 00:00:00 | 00:00:00 | 00:00:00 | |
| WB7NNF | 2026-09-02 19:24:16 | 48.43519 | -117.54843 | 342° | 62km/h | 7830m | -4.6m/s | -31.3°C | 0% | 0hPa | 0V | 00:00:00 | 00:00:00 | 00:00:00 | |
| WB7NNF | 2026-09-02 19:23:56 | 48.43221 | -117.54674 | 339° | 58km/h | 7927m | -4.6m/s | -32.1°C | 0% | 0hPa | 0V | 00:00:00 | 00:00:00 | 00:00:00 | |
| WB7NNF | 2026-09-02 19:23:35 | 48.42949 | -117.54492 | 336° | 60km/h | 8018m | -4.4m/s | -32.8°C | 0% | 0hPa | 0V | 00:00:00 | 00:00:00 | 00:00:00 | |
| WB7NNF | 2026-09-02 19:23:15 | 48.42661 | -117.54286 | 335° | 60km/h | 8112m | -4.5m/s | -33.6°C | 0% | 0hPa | 0V | 00:00:00 | 00:00:00 | 00:00:00 | |
| WB7NNF | 2026-09-02 19:22:54 | 48.42383 | -117.54084 | 335° | 60km/h | 8200m | -4.6m/s | -34.4°C | 0% | 0hPa | 0V | 00:00:00 | 00:00:00 | 00:00:00 | |
| WB7NNF | 2026-09-02 19:22:34 | 48.42095 | -117.53867 | 335° | 60km/h | 8292m | -4.3m/s | -35.2°C | 0% | 0hPa | 0V | 00:00:00 | 00:00:00 | 00:00:00 | |
| WB7NNF | 2026-09-02 19:22:13 | 48.41808 | -117.53651 | 334° | 60km/h | 8384m | -4.1m/s | -35.9°C | 0% | 0hPa | 0V | 00:00:00 | 00:00:00 | 00:00:00 | |
| WB7NNF | 2026-09-02 19:21:51 | 48.41513 | -117.53417 | 333° | 60km/h | 8484m | -4.8m/s | -36.8°C | 0% | 0hPa | 0V | 00:00:00 | 00:00:00 | 00:00:00 | |
| WB7NNF | 2026-09-02 19:21:30 | 48.41238 | -117.53198 | 334° | 62km/h | 8577m | -4.9m/s | -37.5°C | 0% | 0hPa | 0V | 00:00:00 | 00:00:00 | 00:00:00 | |
| WB7NNF | 2026-09-02 19:21:10 | 48.40938 | -117.52956 | 333° | 66km/h | 8676m | -4.8m/s | -38.3°C | 0% | 0hPa | 0V | 00:00:00 | 00:00:00 | 00:00:00 | |
| WB7NNF | 2026-09-02 19:20:49 | 48.40644 | -117.52730 | 336° | 66km/h | 8770m | -5.1m/s | -39.1°C | 0% | 0hPa | 0V | 00:00:00 | 00:00:00 | 00:00:00 | |
| WB7NNF | 2026-09-02 19:20:29 | 48.40311 | -117.52502 | 335° | 71km/h | 8878m | -5.5m/s | -40.0°C | 0% | 0hPa | 0V | 00:00:00 | 00:00:00 | 00:00:00 | |
| WB7NNF | 2026-09-02 19:20:08 | 48.39971 | -117.52246 | 331° | 77km/h | 8971m | -5.0m/s | -40.7°C | 0% | 0hPa | 0V | 00:00:00 | 00:00:00 | 00:00:00 | |
| WB7NNF | 2026-09-02 19:19:48 | 48.39614 | -117.51927 | 330° | 78km/h | 9071m | -4.8m/s | -41.4°C | 0% | 0hPa | 0V | 00:00:00 | 00:00:00 | 00:00:00 | |
| WB7NNF | 2026-09-02 19:19:27 | 48.39268 | -117.51616 | 330° | 80km/h | 9170m | -4.8m/s | -42.3°C | 0% | 0hPa | 0V | 00:00:00 | 00:00:00 | 00:00:00 | |
| WB7NNF | 2026-09-02 19:19:07 | 48.38900 | -117.51282 | 329° | 82km/h | 9275m | -5.0m/s | -43.3°C | 0% | 0hPa | 0V | 00:00:00 | 00:00:00 | 00:00:00 | |
| WB7NNF | 2026-09-02 19:18:46 | 48.38532 | -117.50926 | 329° | 84km/h | 9381m | -5.1m/s | -44.2°C | 0% | 0hPa | 0V | 00:00:00 | 00:00:00 | 00:00:00 | |
| WB7NNF | 2026-09-02 19:18:25 | 48.38168 | -117.50596 | 330° | 84km/h | 9482m | -5.2m/s | -45.0°C | 0% | 0hPa | 0V | 00:00:00 | 00:00:00 | 00:00:00 | |
| WB7NNF | 2026-09-02 19:18:05 | 48.37779 | -117.50258 | 331° | 86km/h | 9588m | -5.1m/s | -45.8°C | 0% | 0hPa | 0V | 00:00:00 | 00:00:00 | 00:00:00 | |
| WB7NNF | 2026-09-02 19:17:44 | 48.37392 | -117.49925 | 331° | 91km/h | 9687m | -4.9m/s | -46.5°C | 0% | 0hPa | 0V | 00:00:00 | 00:00:00 | 00:00:00 | |
| WB7NNF | 2026-09-02 19:17:24 | 48.36963 | -117.49570 | 332° | 91km/h | 9792m | -5.3m/s | -47.2°C | 0% | 0hPa | 0V | 00:00:00 | 00:00:00 | 00:00:00 | |
| WB7NNF | 2026-09-02 19:17:03 | 48.36551 | -117.49234 | 333° | 95km/h | 9894m | -5.2m/s | -47.9°C | 0% | 0hPa | 0V | 00:00:00 | 00:00:00 | 00:00:00 | |
| WB7NNF | 2026-09-02 19:16:43 | 48.36088 | -117.48875 | 334° | 100km/h | 10001m | -4.9m/s | -48.7°C | 0% | 0hPa | 0V | 00:00:00 | 00:00:00 | 00:00:00 | |
| WB7NNF | 2026-09-02 19:16:22 | 48.35619 | -117.48524 | 335° | 108km/h | 10101m | -4.7m/s | -49.5°C | 0% | 0hPa | 0V | 00:00:00 | 00:00:00 | 00:00:00 | |
| WB7NNF | 2026-09-02 19:15:41 | 48.34610 | -117.47863 | 343° | 108km/h | 10320m | -5.8m/s | -50.7°C | 0% | 0hPa | 0V | 00:00:00 | 00:00:00 | 00:00:00 | |
| WB7NNF | 2026-09-02 19:15:21 | 48.34060 | -117.47677 | 356° | 106km/h | 10452m | -5.6m/s | -51.0°C | 0% | 0hPa | 0V | 00:00:00 | 00:00:00 | 00:00:00 | |
| WB7NNF | 2026-09-02 19:15:00 | 48.33558 | -117.47640 | 358° | 99km/h | 10576m | -6.6m/s | -52.1°C | 0% | 0hPa | 0V | 00:00:00 | 00:00:00 | 00:00:00 | |
| WB7NNF | 2026-09-02 19:14:40 | 48.33022 | -117.47651 | 6° | 108km/h | 10697m | -6.5m/s | -52.9°C | 0% | 0hPa | 0V | 00:00:00 | 00:00:00 | 00:00:00 | |
| WB7NNF | 2026-09-02 19:14:19 | 48.32486 | -117.47748 | 10° | 99km/h | 10822m | -4.6m/s | -53.8°C | 0% | 0hPa | 0V | 00:00:00 | 00:00:00 | 00:00:00 | |
| WB7NNF | 2026-09-02 19:13:58 | 48.32001 | -117.47864 | 10° | 95km/h | 10915m | -3.8m/s | -54.6°C | 0% | 0hPa | 0V | 00:00:00 | 00:00:00 | 00:00:00 | |
| WB7NNF | 2026-09-02 19:13:37 | 48.31495 | -117.47969 | 12° | 95km/h | 11025m | -5.7m/s | -55.5°C | 0% | 0hPa | 0V | 00:00:00 | 00:00:00 | 00:00:00 | |
| WB7NNF | 2026-09-02 19:13:17 | 48.31026 | -117.48123 | 12° | 93km/h | 11135m | -4.9m/s | -56.6°C | 0% | 0hPa | 0V | 00:00:00 | 00:00:00 | 00:00:00 | |
| WB7NNF | 2026-09-02 19:12:36 | 48.30198 | -117.48458 | 24° | 64km/h | 11355m | -5.9m/s | -54.5°C | 0% | 0hPa | 0V | 00:00:00 | 00:00:00 | 00:00:00 | |
| WB7NNF | 2026-09-02 19:12:16 | 48.29922 | -117.48620 | 20° | 49km/h | 11479m | -5.7m/s | -51.5°C | 0% | 0hPa | 0V | 00:00:00 | 00:00:00 | 00:00:00 | |
| WB7NNF | 2026-09-02 19:11:55 | 48.29690 | -117.48701 | 10° | 47km/h | 11596m | -5.6m/s | -51.6°C | 0% | 0hPa | 0V | 00:00:00 | 00:00:00 | 00:00:00 | |
| WB7NNF | 2026-09-02 19:11:35 | 48.29450 | -117.48722 | 355° | 46km/h | 11717m | -5.7m/s | -51.6°C | 0% | 0hPa | 0V | 00:00:00 | 00:00:00 | 00:00:00 | |
| WB7NNF | 2026-09-02 19:11:14 | 48.29224 | -117.48688 | 358° | 46km/h | 11835m | -5.7m/s | -51.7°C | 0% | 0hPa | 0V | 00:00:00 | 00:00:00 | 00:00:00 | |
| WB7NNF | 2026-09-02 19:10:54 | 48.28993 | -117.48664 | 359° | 44km/h | 11955m | -5.2m/s | -51.7°C | 0% | 0hPa | 0V | 00:00:00 | 00:00:00 | 00:00:00 | |
| WB7NNF | 2026-09-02 19:10:33 | 48.28756 | -117.48660 | 358° | 49km/h | 12065m | -5.3m/s | -51.0°C | 0% | 0hPa | 0V | 00:00:00 | 00:00:00 | 00:00:00 | |
| WB7NNF | 2026-09-02 19:10:13 | 48.28477 | -117.48682 | 6° | 58km/h | 12182m | -5.6m/s | -50.2°C | 0% | 0hPa | 0V | 00:00:00 | 00:00:00 | 00:00:00 | |
| WB7NNF | 2026-09-02 19:09:52 | 48.28177 | -117.48769 | 13° | 64km/h | 12299m | -6.0m/s | -50.0°C | 0% | 0hPa | 0V | 00:00:00 | 00:00:00 | 00:00:00 | |
| WB7NNF | 2026-09-02 19:09:32 | 48.27835 | -117.48883 | 17° | 66km/h | 12430m | -6.2m/s | -50.7°C | 0% | 0hPa | 0V | 00:00:00 | 00:00:00 | 00:00:00 | |
| WB7NNF | 2026-09-02 19:09:11 | 48.27530 | -117.49037 | 16° | 66km/h | 12558m | -6.3m/s | -50.4°C | 0% | 0hPa | 0V | 00:00:00 | 00:00:00 | 00:00:00 | |
| WB7NNF | 2026-09-02 19:08:51 | 48.27184 | -117.49217 | 19° | 73km/h | 12692m | -6.0m/s | -50.6°C | 0% | 0hPa | 0V | 00:00:00 | 00:00:00 | 00:00:00 | |
| WB7NNF | 2026-09-02 19:08:30 | 48.26834 | -117.49399 | 24° | 68km/h | 12824m | -5.9m/s | -50.0°C | 0% | 0hPa | 0V | 00:00:00 | 00:00:00 | 00:00:00 | |
| WB7NNF | 2026-09-02 19:08:09 | 48.26518 | -117.49601 | 25° | 64km/h | 12951m | -6.0m/s | -49.2°C | 0% | 0hPa | 0V | 00:00:00 | 00:00:00 | 00:00:00 | |
| WB7NNF | 2026-09-02 19:07:49 | 48.26214 | -117.49753 | 17° | 57km/h | 13073m | -5.2m/s | -47.7°C | 0% | 0hPa | 0V | 00:00:00 | 00:00:00 | 00:00:00 | |
| WB7NNF | 2026-09-02 19:07:28 | 48.25907 | -117.49899 | 19° | 69km/h | 13188m | -5.5m/s | -47.9°C | 0% | 0hPa | 0V | 00:00:00 | 00:00:00 | 00:00:00 | |
| WB7NNF | 2026-09-02 19:07:08 | 48.25559 | -117.50073 | 19° | 62km/h | 13308m | -5.8m/s | -48.3°C | 0% | 0hPa | 0V | 00:00:00 | 00:00:00 | 00:00:00 | |
| WB7NNF | 2026-09-02 19:06:48 | 48.25261 | -117.50227 | 22° | 58km/h | 13427m | -5.6m/s | -48.8°C | 0% | 0hPa | 0V | 00:00:00 | 00:00:00 | 00:00:00 | |
| WB7NNF | 2026-09-02 19:06:27 | 48.24982 | -117.50388 | 21° | 57km/h | 13557m | -5.9m/s | -49.2°C | 0% | 0hPa | 0V | 00:00:00 | 00:00:00 | 00:00:00 | |
| WB7NNF | 2026-09-02 19:05:46 | 48.24441 | -117.50705 | 16° | 58km/h | 13835m | -6.8m/s | -49.1°C | 0% | 0hPa | 0V | 00:00:00 | 00:00:00 | 00:00:00 | |
| WB7NNF | 2026-09-02 19:05:25 | 48.24164 | -117.50845 | 26° | 57km/h | 13972m | -6.8m/s | -49.6°C | 0% | 0hPa | 0V | 00:00:00 | 00:00:00 | 00:00:00 | |
| WB7NNF | 2026-09-02 19:05:05 | 48.23911 | -117.51015 | 25° | 47km/h | 14128m | -7.2m/s | -49.5°C | 0% | 0hPa | 0V | 00:00:00 | 00:00:00 | 00:00:00 | |
| WB7NNF | 2026-09-02 19:04:44 | 48.23692 | -117.51130 | 18° | 46km/h | 14279m | -7.3m/s | -48.7°C | 0% | 0hPa | 0V | 00:00:00 | 00:00:00 | 00:00:00 | |
| WB7NNF | 2026-09-02 19:04:24 | 48.23470 | -117.51304 | 35° | 53km/h | 14442m | -7.0m/s | -48.3°C | 0% | 0hPa | 0V | 00:00:00 | 00:00:00 | 00:00:00 | |
| WB7NNF | 2026-09-02 19:04:03 | 48.23259 | -117.51517 | 31° | 51km/h | 14600m | -8.1m/s | -48.1°C | 0% | 0hPa | 0V | 00:00:00 | 00:00:00 | 00:00:00 | |
| WB7NNF | 2026-09-02 19:03:43 | 48.23010 | -117.51697 | 31° | 51km/h | 14777m | -7.2m/s | -48.1°C | 0% | 0hPa | 0V | 00:00:00 | 00:00:00 | 00:00:00 | |
| WB7NNF | 2026-09-02 19:03:22 | 48.22765 | -117.51891 | 28° | 57km/h | 14942m | -8.7m/s | -48.4°C | 0% | 0hPa | 0V | 00:00:00 | 00:00:00 | 00:00:00 | |
| WB7NNF | 2026-09-02 19:03:01 | 48.22538 | -117.52054 | 22° | 42km/h | 15107m | -8.6m/s | -48.7°C | 0% | 0hPa | 0V | 00:00:00 | 00:00:00 | 00:00:00 | |
| WB7NNF | 2026-09-02 19:02:41 | 48.22293 | -117.52196 | 27° | 55km/h | 15281m | -7.8m/s | -48.9°C | 0% | 0hPa | 0V | 00:00:00 | 00:00:00 | 00:00:00 | |
| WB7NNF | 2026-09-02 19:02:20 | 48.22034 | -117.52341 | 18° | 64km/h | 15454m | -7.2m/s | -48.3°C | 0% | 0hPa | 0V | 00:00:00 | 00:00:00 | 00:00:00 | |
| WB7NNF | 2026-09-02 19:02:00 | 48.21716 | -117.52502 | 27° | 66km/h | 15617m | -7.2m/s | -48.3°C | 0% | 0hPa | 0V | 00:00:00 | 00:00:00 | 00:00:00 | |
| WB7NNF | 2026-09-02 19:01:39 | 48.21477 | -117.52699 | 31° | 46km/h | 15777m | -6.6m/s | -48.6°C | 0% | 0hPa | 0V | 00:00:00 | 00:00:00 | 00:00:00 | |
| WB7NNF | 2026-09-02 19:01:19 | 48.21306 | -117.52875 | 37° | 38km/h | 15932m | -7.8m/s | -48.4°C | 0% | 0hPa | 0V | 00:00:00 | 00:00:00 | 00:00:00 | |
| WB7NNF | 2026-09-02 19:00:58 | 48.21118 | -117.53034 | 23° | 46km/h | 16082m | -6.7m/s | -48.1°C | 0% | 0hPa | 0V | 00:00:00 | 00:00:00 | 00:00:00 | |
| WB7NNF | 2026-09-02 19:00:38 | 48.20856 | -117.53188 | 19° | 53km/h | 16240m | -6.6m/s | -48.9°C | 0% | 0hPa | 0V | 00:00:00 | 00:00:00 | 00:00:00 | |
| WB7NNF | 2026-09-02 19:00:17 | 48.20576 | -117.53308 | 26° | 55km/h | 16386m | -9.9m/s | -48.8°C | 0% | 0hPa | 0V | 00:00:00 | 00:00:00 | 00:00:00 | |
| WB7NNF | 2026-09-02 18:59:57 | 48.20308 | -117.53546 | 37° | 64km/h | 16537m | -7.1m/s | -48.0°C | 0% | 0hPa | 0V | 00:00:00 | 00:00:00 | 00:00:00 | |
| WB7NNF | 2026-09-02 18:59:36 | 48.20090 | -117.53783 | 37° | 49km/h | 16685m | -7.8m/s | -48.7°C | 0% | 0hPa | 0V | 00:00:00 | 00:00:00 | 00:00:00 | |
| WB7NNF | 2026-09-02 18:59:16 | 48.19901 | -117.53969 | 23° | 38km/h | 16844m | -7.4m/s | -48.3°C | 0% | 0hPa | 0V | 00:00:00 | 00:00:00 | 00:00:00 | |
| WB7NNF | 2026-09-02 18:58:55 | 48.19689 | -117.54101 | 28° | 47km/h | 17002m | -8.1m/s | -48.4°C | 0% | 0hPa | 0V | 00:00:00 | 00:00:00 | 00:00:00 | |
| WB7NNF | 2026-09-02 18:58:35 | 48.19453 | -117.54200 | 15° | 42km/h | 17174m | -7.3m/s | -48.2°C | 0% | 0hPa | 0V | 00:00:00 | 00:00:00 | 00:00:00 | |
| WB7NNF | 2026-09-02 18:58:14 | 48.19241 | -117.54285 | 9° | 40km/h | 17355m | -8.5m/s | -48.5°C | 0% | 0hPa | 0V | 00:00:00 | 00:00:00 | 00:00:00 | |
| WB7NNF | 2026-09-02 18:57:52 | 48.19033 | -117.54375 | 26° | 49km/h | 17537m | -9.2m/s | -48.9°C | 0% | 0hPa | 0V | 00:00:00 | 00:00:00 | 00:00:00 | |
| WB7NNF | 2026-09-02 18:57:31 | 48.18817 | -117.54552 | 39° | 42km/h | 17727m | -8.4m/s | -49.2°C | 0% | 0hPa | 0V | 00:00:00 | 00:00:00 | 00:00:00 | |
| WB7NNF | 2026-09-02 18:57:11 | 48.18663 | -117.54685 | 12° | 26km/h | 17919m | -9.1m/s | -50.2°C | 0% | 0hPa | 0V | 00:00:00 | 00:00:00 | 00:00:00 | |
| WB7NNF | 2026-09-02 18:56:50 | 48.18545 | -117.54677 | 2° | 26km/h | 18115m | -9.4m/s | -50.3°C | 0% | 0hPa | 0V | 00:00:00 | 00:00:00 | 00:00:00 | |
| WB7NNF | 2026-09-02 18:56:29 | 48.18378 | -117.54706 | 16° | 37km/h | 18306m | -9.6m/s | -51.2°C | 0% | 0hPa | 0V | 00:00:00 | 00:00:00 | 00:00:00 | |
| WB7NNF | 2026-09-02 18:56:09 | 48.18154 | -117.54832 | 24° | 51km/h | 18509m | -9.5m/s | -51.7°C | 0% | 0hPa | 0V | 00:00:00 | 00:00:00 | 00:00:00 | |
| WB7NNF | 2026-09-02 18:55:47 | 48.17947 | -117.55060 | 59° | 46km/h | 18721m | -12.0m/s | -50.8°C | 0% | 0hPa | 0V | 00:00:00 | 00:00:00 | 00:00:00 | |
| WB7NNF | 2026-09-02 18:55:22 | 48.17778 | -117.55376 | 44° | 44km/h | 18987m | -10.4m/s | -51.3°C | 0% | 0hPa | 0V | 00:00:00 | 00:00:00 | 00:00:00 | |
| WB7NNF | 2026-09-02 18:54:52 | 48.17562 | -117.55614 | 44° | 31km/h | 19298m | -10.2m/s | -50.4°C | 0% | 0hPa | 0V | 00:00:00 | 00:00:00 | 00:00:00 | |
| WB7NNF | 2026-09-02 18:54:32 | 48.17452 | -117.55730 | 2° | 22km/h | 19506m | -9.7m/s | -51.0°C | 0% | 0hPa | 0V | 00:00:00 | 00:00:00 | 00:00:00 | |
| WB7NNF | 2026-09-02 18:54:10 | 48.17351 | -117.55769 | 28° | 20km/h | 19742m | -11.9m/s | -52.2°C | 0% | 0hPa | 0V | 00:00:00 | 00:00:00 | 00:00:00 | |
| WB7NNF | 2026-09-02 18:53:45 | 48.17226 | -117.55875 | 40° | 13km/h | 20056m | -12.3m/s | -51.0°C | 0% | 0hPa | 0V | 00:00:00 | 00:00:00 | 00:00:00 | |
| WB7NNF | 2026-09-02 18:52:27 | 48.16884 | -117.56133 | 19° | 20km/h | 21046m | -13.2m/s | -52.9°C | 0% | 0hPa | 0V | 00:00:00 | 00:00:00 | 00:00:00 | |
| WB7NNF | 2026-09-02 18:52:04 | 48.16772 | -117.56188 | 25° | 20km/h | 21338m | -13.3m/s | -53.7°C | 0% | 0hPa | 0V | 00:00:00 | 00:00:00 | 00:00:00 | |
| WB7NNF | 2026-09-02 18:51:44 | 48.16677 | -117.56358 | 66° | 31km/h | 21626m | -13.8m/s | -52.2°C | 0% | 0hPa | 0V | 00:00:00 | 00:00:00 | 00:00:00 | |
| WB7NNF | 2026-09-02 18:51:23 | 48.16679 | -117.56559 | 106° | 20km/h | 21906m | -14.1m/s | -51.0°C | 0% | 0hPa | 0V | 00:00:00 | 00:00:00 | 00:00:00 | |
| WB7NNF | 2026-09-02 18:50:42 | 48.16722 | -117.56670 | 118° | 15km/h | 22498m | -14.6m/s | -51.9°C | 0% | 0hPa | 0V | 00:00:00 | 00:00:00 | 00:00:00 | |
| WB7NNF | 2026-09-02 18:50:22 | 48.16749 | -117.56738 | 291° | 5km/h | 22810m | -15.1m/s | -51.1°C | 0% | 0hPa | 0V | 00:00:00 | 00:00:00 | 00:00:00 | |
| WB7NNF | 2026-09-02 18:50:01 | 48.16710 | -117.56682 | 348° | 7km/h | 23117m | -15.6m/s | -51.0°C | 0% | 0hPa | 0V | 00:00:00 | 00:00:00 | 00:00:00 | |
| WB7NNF | 2026-09-02 18:49:41 | 48.16675 | -117.56622 | 282° | 16km/h | 23450m | -15.7m/s | -51.6°C | 0% | 0hPa | 0V | 00:00:00 | 00:00:00 | 00:00:00 | |
| WB7NNF | 2026-09-02 18:49:20 | 48.16667 | -117.56490 | 280° | 18km/h | 23770m | -16.0m/s | -52.0°C | 0% | 0hPa | 0V | 00:00:00 | 00:00:00 | 00:00:00 | |
| WB7NNF | 2026-09-02 18:48:39 | 48.16599 | -117.56251 | 330° | 31km/h | 24443m | -16.4m/s | -51.5°C | 0% | 0hPa | 0V | 00:00:00 | 00:00:00 | 00:00:00 | |
| WB7NNF | 2026-09-02 18:48:19 | 48.16470 | -117.56192 | 19° | 27km/h | 24799m | -17.1m/s | -51.4°C | 0% | 0hPa | 0V | 00:00:00 | 00:00:00 | 00:00:00 | |
| WB7NNF | 2026-09-02 18:47:58 | 48.16380 | -117.56236 | 11° | 18km/h | 25161m | -17.1m/s | -50.5°C | 0% | 0hPa | 0V | 00:00:00 | 00:00:00 | 00:00:00 | |
| WB7NNF | 2026-09-02 18:47:37 | 48.16338 | -117.56273 | 84° | 4km/h | 25507m | -17.4m/s | -49.7°C | 0% | 0hPa | 0V | 00:00:00 | 00:00:00 | 00:00:00 | |
| WB7NNF | 2026-09-02 18:47:17 | 48.16331 | -117.56315 | 118° | 9km/h | 25880m | -18.1m/s | -49.0°C | 0% | 0hPa | 0V | 00:00:00 | 00:00:00 | 00:00:00 | |
| WB7NNF | 2026-09-02 18:46:56 | 48.16368 | -117.56315 | 243° | 15km/h | 26252m | -18.9m/s | -49.0°C | 0% | 0hPa | 0V | 00:00:00 | 00:00:00 | 00:00:00 | |
| WB7NNF | 2026-09-02 18:46:36 | 48.16375 | -117.56179 | 306° | 16km/h | 26655m | -19.7m/s | -49.1°C | 0% | 0hPa | 0V | 00:00:00 | 00:00:00 | 00:00:00 | |
| WB7NNF | 2026-09-02 18:46:15 | 48.16299 | -117.56150 | 28° | 18km/h | 27044m | -19.6m/s | -49.0°C | 0% | 0hPa | 0V | 00:00:00 | 00:00:00 | 00:00:00 | |
| WB7NNF | 2026-09-02 18:45:55 | 48.16192 | -117.56262 | 58° | 27km/h | 27469m | -19.6m/s | -48.0°C | 0% | 0hPa | 0V | 00:00:00 | 00:00:00 | 00:00:00 | |
| WB7NNF | 2026-09-02 18:45:34 | 48.16179 | -117.56353 | 113° | 9km/h | 27884m | -22.2m/s | -47.1°C | 0% | 0hPa | 0V | 00:00:00 | 00:00:00 | 00:00:00 | |
| WB7NNF | 2026-09-02 18:45:14 | 48.16241 | -117.56375 | 207° | 22km/h | 28341m | -22.2m/s | -48.3°C | 0% | 0hPa | 0V | 00:00:00 | 00:00:00 | 00:00:00 | |
| WB7NNF | 2026-09-02 18:44:53 | 48.16270 | -117.56360 | 124° | 9km/h | 28808m | -21.6m/s | -48.0°C | 0% | 0hPa | 0V | 00:00:00 | 00:00:00 | 00:00:00 | |
| WB7NNF | 2026-09-02 18:44:31 | 48.16300 | -117.56407 | 163° | 5km/h | 29286m | -22.7m/s | -47.2°C | 0% | 0hPa | 0V | 00:00:00 | 00:00:00 | 00:00:00 | |
| WB7NNF | 2026-09-02 18:44:10 | 48.16280 | -117.56447 | 73° | 5km/h | 29785m | -23.9m/s | -45.5°C | 0% | 0hPa | 0V | 00:00:00 | 00:00:00 | 00:00:00 | |
| WB7NNF | 2026-09-02 18:43:48 | 48.16282 | -117.56636 | 107° | 24km/h | 30371m | -28.7m/s | -44.4°C | 0% | 0hPa | 0V | 00:00:00 | 00:00:00 | 00:00:00 | |
| WB7NNF | 2026-09-02 18:43:27 | 48.16290 | -117.56813 | 82° | 26km/h | 30891m | -27.9m/s | -43.8°C | 0% | 0hPa | 0V | 00:00:00 | 00:00:00 | 00:00:00 | |
| WB7NNF | 2026-09-02 18:43:07 | 48.16328 | -117.56975 | 215° | 9km/h | 31533m | -36.3m/s | -42.2°C | 0% | 0hPa | 0V | 00:00:00 | 00:00:00 | 00:00:00 | |
| WB7NNF | 2026-09-02 18:42:45 | 48.16334 | -117.56909 | 255° | 9km/h | 32179m | -19.0m/s | -41.3°C | 0% | 0hPa | 0V | 00:00:00 | 00:00:00 | 00:00:00 | |
| WB7NNF | 2026-09-02 18:42:24 | 48.16314 | -117.56897 | 249° | 13km/h | 32789m | -37.0m/s | -40.3°C | 0% | 0hPa | 0V | 00:00:00 | 00:00:00 | 00:00:00 | |
| WB7NNF | 2026-09-02 18:42:03 | 48.16323 | -117.56914 | 95° | 16km/h | 33487m | -33.3m/s | -38.9°C | 0% | 0hPa | 0V | 00:00:00 | 00:00:00 | 00:00:00 | |
| WB7NNF | 2026-09-02 18:41:43 | 48.16283 | -117.56938 | 80° | 55km/h | 33837m | 4.6m/s | -38.6°C | 0% | 0hPa | 0V | 00:00:00 | 00:00:00 | 00:00:00 | |
| WB7NNF | 2026-09-02 18:41:22 | 48.16295 | -117.57052 | 105° | 9km/h | 33700m | 8.0m/s | -38.5°C | 0% | 0hPa | 0V | 00:00:00 | 00:00:00 | 00:00:00 | |
| WB7NNF | 2026-09-02 18:40:21 | 48.16444 | -117.57153 | 68° | 20km/h | 33290m | -0.0m/s | -39.4°C | 0% | 0hPa | 0V | 00:00:00 | 00:00:00 | 00:00:00 | |
| WB7NNF | 2026-09-02 18:40:00 | 48.16414 | -117.57123 | 113° | 35km/h | 33158m | 15.9m/s | -39.6°C | 0% | 0hPa | 0V | 00:00:00 | 00:00:00 | 00:00:00 | |
| WB7NNF | 2026-09-02 18:39:38 | 48.16418 | -117.57170 | 260° | 33km/h | 33017m | 8.6m/s | -39.9°C | 0% | 0hPa | 0V | 00:00:00 | 00:00:00 | 00:00:00 | |
| WB7NNF | 2026-09-02 18:39:17 | 48.16435 | -117.57166 | 349° | 11km/h | 32899m | 10.8m/s | -40.6°C | 0% | 0hPa | 0V | 00:00:00 | 00:00:00 | 00:00:00 | |
| WB7NNF | 2026-09-02 18:38:57 | 48.16416 | -117.57174 | 4° | 27km/h | 32771m | 5.1m/s | -41.0°C | 0% | 0hPa | 0V | 00:00:00 | 00:00:00 | 00:00:00 | |
| WB7NNF | 2026-09-02 18:38:36 | 48.16375 | -117.57155 | 211° | 47km/h | 32648m | 10.6m/s | -41.4°C | 0% | 0hPa | 0V | 00:00:00 | 00:00:00 | 00:00:00 | |
| WB7NNF | 2026-09-02 18:38:16 | 48.16353 | -117.57129 | 14° | 24km/h | 32514m | 8.1m/s | -41.7°C | 0% | 0hPa | 0V | 00:00:00 | 00:00:00 | 00:00:00 | |
| WB7NNF | 2026-09-02 18:37:55 | 48.16326 | -117.57155 | 70° | 9km/h | 32386m | 8.1m/s | -41.5°C | 0% | 0hPa | 0V | 00:00:00 | 00:00:00 | 00:00:00 | |
| WB7NNF | 2026-09-02 18:37:35 | 48.16321 | -117.57147 | 282° | 13km/h | 32246m | 3.8m/s | -41.6°C | 0% | 0hPa | 0V | 00:00:00 | 00:00:00 | 00:00:00 | |
| WB7NNF | 2026-09-02 18:37:14 | 48.16284 | -117.57095 | 351° | 29km/h | 32093m | 3.3m/s | -41.7°C | 0% | 0hPa | 0V | 00:00:00 | 00:00:00 | 00:00:00 | |
| WB7NNF | 2026-09-02 18:36:52 | 48.16321 | -117.57075 | 221° | 35km/h | 31951m | 11.2m/s | -42.2°C | 0% | 0hPa | 0V | 00:00:00 | 00:00:00 | 00:00:00 | |
| WB7NNF | 2026-09-02 18:36:32 | 48.16335 | -117.57043 | 127° | 27km/h | 31810m | 6.2m/s | -42.3°C | 0% | 0hPa | 0V | 00:00:00 | 00:00:00 | 00:00:00 | |
| WB7NNF | 2026-09-02 18:36:11 | 48.16414 | -117.57027 | 211° | 7km/h | 31662m | 2.9m/s | -42.3°C | 0% | 0hPa | 0V | 00:00:00 | 00:00:00 | 00:00:00 | |
| WB7NNF | 2026-09-02 18:35:49 | 48.16547 | -117.57074 | 105° | 58km/h | 31520m | 0.1m/s | -42.0°C | 0% | 0hPa | 0V | 00:00:00 | 00:00:00 | 00:00:00 | |
| WB7NNF | 2026-09-02 18:35:29 | 48.16691 | -117.57146 | 147° | 40km/h | 31392m | 10.6m/s | -42.6°C | 0% | 0hPa | 0V | 00:00:00 | 00:00:00 | 00:00:00 | |
| WB7NNF | 2026-09-02 18:35:07 | 48.16760 | -117.57377 | 135° | 15km/h | 31244m | 9.9m/s | -43.5°C | 0% | 0hPa | 0V | 00:00:00 | 00:00:00 | 00:00:00 | |
| WB7NNF | 2026-09-02 18:34:47 | 48.16764 | -117.57572 | 81° | 20km/h | 31113m | 4.6m/s | -44.1°C | 0% | 0hPa | 0V | 00:00:00 | 00:00:00 | 00:00:00 | |
| WB7NNF | 2026-09-02 18:34:24 | 48.16730 | -117.57825 | 99° | 18km/h | 30970m | 7.6m/s | -44.1°C | 0% | 0hPa | 0V | 00:00:00 | 00:00:00 | 00:00:00 | |
| WB7NNF | 2026-09-02 18:34:04 | 48.16694 | -117.57975 | 52° | 20km/h | 30839m | 4.9m/s | -44.5°C | 0% | 0hPa | 0V | 00:00:00 | 00:00:00 | 00:00:00 | |
| WB7NNF | 2026-09-02 18:33:43 | 48.16686 | -117.58179 | 279° | 20km/h | 30707m | 4.5m/s | -45.1°C | 0% | 0hPa | 0V | 00:00:00 | 00:00:00 | 00:00:00 | |
| WB7NNF | 2026-09-02 18:33:21 | 48.16702 | -117.58343 | 134° | 13km/h | 30567m | 9.1m/s | -44.9°C | 0% | 0hPa | 0V | 00:00:00 | 00:00:00 | 00:00:00 | |
| WB7NNF | 2026-09-02 18:32:53 | 48.16712 | -117.58485 | 240° | 40km/h | 30375m | 1.7m/s | -44.7°C | 0% | 0hPa | 0V | 00:00:00 | 00:00:00 | 00:00:00 | |
| WB7NNF | 2026-09-02 18:32:32 | 48.16696 | -117.58620 | 238° | 24km/h | 30236m | 5.3m/s | -45.1°C | 0% | 0hPa | 0V | 00:00:00 | 00:00:00 | 00:00:00 | |
| WB7NNF | 2026-09-02 18:32:12 | 48.16684 | -117.58810 | 64° | 37km/h | 30100m | 4.0m/s | -44.9°C | 0% | 0hPa | 0V | 00:00:00 | 00:00:00 | 00:00:00 | |
| WB7NNF | 2026-09-02 18:31:51 | 48.16666 | -117.58942 | 107° | 29km/h | 29967m | 15.5m/s | -46.0°C | 0% | 0hPa | 0V | 00:00:00 | 00:00:00 | 00:00:00 | |
| WB7NNF | 2026-09-02 18:31:29 | 48.16630 | -117.59010 | 104° | 13km/h | 29824m | 1.8m/s | -46.9°C | 0% | 0hPa | 0V | 00:00:00 | 00:00:00 | 00:00:00 | |
| WB7NNF | 2026-09-02 18:31:08 | 48.16584 | -117.59146 | 93° | 20km/h | 29676m | 0.6m/s | -47.1°C | 0% | 0hPa | 0V | 00:00:00 | 00:00:00 | 00:00:00 | |
| WB7NNF | 2026-09-02 18:30:44 | 48.16508 | -117.59144 | 361° | 40km/h | 29514m | -3.1m/s | -47.8°C | 0% | 0hPa | 0V | 00:00:00 | 00:00:00 | 00:00:00 | |
| WB7NNF | 2026-09-02 18:30:23 | 48.16498 | -117.59144 | 153° | 9km/h | 29376m | 4.6m/s | -48.2°C | 0% | 0hPa | 0V | 00:00:00 | 00:00:00 | 00:00:00 | |
| WB7NNF | 2026-09-02 18:29:42 | 48.16525 | -117.59255 | 324° | 37km/h | 29109m | -1.0m/s | -48.6°C | 0% | 0hPa | 0V | 00:00:00 | 00:00:00 | 00:00:00 | |
| WB7NNF | 2026-09-02 18:29:22 | 48.16521 | -117.59327 | 322° | 42km/h | 28967m | -1.7m/s | -48.3°C | 0% | 0hPa | 0V | 00:00:00 | 00:00:00 | 00:00:00 | |
| WB7NNF | 2026-09-02 18:29:01 | 48.16517 | -117.59407 | 290° | 37km/h | 28824m | 7.6m/s | -48.1°C | 0% | 0hPa | 0V | 00:00:00 | 00:00:00 | 00:00:00 | |
| WB7NNF | 2026-09-02 18:28:41 | 48.16510 | -117.59420 | 279° | 37km/h | 28684m | -1.0m/s | -47.7°C | 0% | 0hPa | 0V | 00:00:00 | 00:00:00 | 00:00:00 | |
| WB7NNF | 2026-09-02 18:28:20 | 48.16497 | -117.59411 | 268° | 37km/h | 28555m | 4.6m/s | -47.5°C | 0% | 0hPa | 0V | 00:00:00 | 00:00:00 | 00:00:00 | |
| WB7NNF | 2026-09-02 18:27:56 | 48.16516 | -117.59321 | 275° | 42km/h | 28404m | 5.5m/s | -47.5°C | 0% | 0hPa | 0V | 00:00:00 | 00:00:00 | 00:00:00 | |
| WB7NNF | 2026-09-02 18:27:35 | 48.16592 | -117.59200 | 220° | 55km/h | 28269m | 10.0m/s | -47.1°C | 0% | 0hPa | 0V | 00:00:00 | 00:00:00 | 00:00:00 | |
| WB7NNF | 2026-09-02 18:27:10 | 48.16710 | -117.59171 | 331° | 24km/h | 28113m | 12.9m/s | -46.8°C | 0% | 0hPa | 0V | 00:00:00 | 00:00:00 | 00:00:00 | |
| WB7NNF | 2026-09-02 18:26:49 | 48.16765 | -117.59180 | 248° | 42km/h | 27977m | 5.0m/s | -46.4°C | 0% | 0hPa | 0V | 00:00:00 | 00:00:00 | 00:00:00 | |
| WB7NNF | 2026-09-02 18:26:28 | 48.16766 | -117.59242 | 178° | 22km/h | 27843m | 4.3m/s | -46.2°C | 0% | 0hPa | 0V | 00:00:00 | 00:00:00 | 00:00:00 | |
| WB7NNF | 2026-09-02 18:26:06 | 48.16795 | -117.59323 | 55° | 40km/h | 27700m | 7.3m/s | -46.5°C | 0% | 0hPa | 0V | 00:00:00 | 00:00:00 | 00:00:00 | |
| WB7NNF | 2026-09-02 18:25:45 | 48.16769 | -117.59411 | 52° | 26km/h | 27569m | 8.5m/s | -46.4°C | 0% | 0hPa | 0V | 00:00:00 | 00:00:00 | 00:00:00 | |
| WB7NNF | 2026-09-02 18:25:25 | 48.16780 | -117.59516 | 108° | 49km/h | 27431m | 5.0m/s | -46.8°C | 0% | 0hPa | 0V | 00:00:00 | 00:00:00 | 00:00:00 | |
| WB7NNF | 2026-09-02 18:25:04 | 48.16705 | -117.59637 | 95° | 51km/h | 27304m | 7.4m/s | -47.6°C | 0% | 0hPa | 0V | 00:00:00 | 00:00:00 | 00:00:00 | |
| WB7NNF | 2026-09-02 18:24:44 | 48.16592 | -117.59753 | 45° | 42km/h | 27171m | 0.9m/s | -48.1°C | 0% | 0hPa | 0V | 00:00:00 | 00:00:00 | 00:00:00 | |
| WB7NNF | 2026-09-02 18:24:23 | 48.16491 | -117.59840 | 54° | 40km/h | 27037m | 3.7m/s | -48.8°C | 0% | 0hPa | 0V | 00:00:00 | 00:00:00 | 00:00:00 | |
| WB7NNF | 2026-09-02 18:24:01 | 48.16380 | -117.59853 | 340° | 46km/h | 26900m | -0.6m/s | -48.9°C | 0% | 0hPa | 0V | 00:00:00 | 00:00:00 | 00:00:00 | |
| WB7NNF | 2026-09-02 18:23:40 | 48.16348 | -117.59820 | 228° | 42km/h | 26771m | 2.9m/s | -49.4°C | 0% | 0hPa | 0V | 00:00:00 | 00:00:00 | 00:00:00 | |
| WB7NNF | 2026-09-02 18:23:18 | 48.16327 | -117.59744 | 319° | 37km/h | 26633m | -1.6m/s | -49.3°C | 0% | 0hPa | 0V | 00:00:00 | 00:00:00 | 00:00:00 | |
| WB7NNF | 2026-09-02 18:22:54 | 48.16345 | -117.59612 | 0° | 0km/h | 26493m | 3.5m/s | -49.8°C | 0% | 0hPa | 0V | 00:00:00 | 00:00:00 | 00:00:00 | |
| WB7NNF | 2026-09-02 18:22:33 | 48.16382 | -117.59442 | 231° | 53km/h | 26353m | -2.0m/s | -49.6°C | 0% | 0hPa | 0V | 00:00:00 | 00:00:00 | 00:00:00 | |
| WB7NNF | 2026-09-02 18:22:12 | 48.16447 | -117.59386 | 159° | 38km/h | 26237m | 6.7m/s | -49.5°C | 0% | 0hPa | 0V | 00:00:00 | 00:00:00 | 00:00:00 | |
| WB7NNF | 2026-09-02 18:21:52 | 48.16489 | -117.59415 | 284° | 40km/h | 26105m | -0.3m/s | -50.0°C | 0% | 0hPa | 0V | 00:00:00 | 00:00:00 | 00:00:00 | |
| WB7NNF | 2026-09-02 18:21:29 | 48.16523 | -117.59461 | 71° | 40km/h | 25968m | 11.7m/s | -49.9°C | 0% | 0hPa | 0V | 00:00:00 | 00:00:00 | 00:00:00 | |
| WB7NNF | 2026-09-02 18:21:09 | 48.16509 | -117.59469 | 301° | 33km/h | 25842m | 7.6m/s | -49.8°C | 0% | 0hPa | 0V | 00:00:00 | 00:00:00 | 00:00:00 | |
| WB7NNF | 2026-09-02 18:20:47 | 48.16502 | -117.59452 | 74° | 26km/h | 25701m | 3.6m/s | -49.6°C | 0% | 0hPa | 0V | 00:00:00 | 00:00:00 | 00:00:00 | |
| WB7NNF | 2026-09-02 18:20:26 | 48.16484 | -117.59420 | 297° | 35km/h | 25565m | 5.6m/s | -49.9°C | 0% | 0hPa | 0V | 00:00:00 | 00:00:00 | 00:00:00 | |
| WB7NNF | 2026-09-02 18:20:04 | 48.16488 | -117.59384 | 229° | 33km/h | 25447m | 4.3m/s | -49.5°C | 0% | 0hPa | 0V | 00:00:00 | 00:00:00 | 00:00:00 | |
| WB7NNF | 2026-09-02 18:19:43 | 48.16468 | -117.59391 | 22° | 58km/h | 25315m | 9.6m/s | -50.2°C | 0% | 0hPa | 0V | 00:00:00 | 00:00:00 | 00:00:00 | |
| WB7NNF | 2026-09-02 18:19:23 | 48.16362 | -117.59367 | 301° | 20km/h | 25182m | 10.6m/s | -50.6°C | 0% | 0hPa | 0V | 00:00:00 | 00:00:00 | 00:00:00 | |
| WB7NNF | 2026-09-02 18:18:42 | 48.16196 | -117.59316 | 50° | 35km/h | 24933m | 8.7m/s | -51.0°C | 0% | 0hPa | 0V | 00:00:00 | 00:00:00 | 00:00:00 | |
| WB7NNF | 2026-09-02 18:18:21 | 48.16064 | -117.59286 | 308° | 49km/h | 24806m | 0.2m/s | -50.9°C | 0% | 0hPa | 0V | 00:00:00 | 00:00:00 | 00:00:00 | |
| WB7NNF | 2026-09-02 18:17:55 | 48.15892 | -117.59196 | 18° | 4km/h | 24663m | 4.5m/s | -50.8°C | 0% | 0hPa | 0V | 00:00:00 | 00:00:00 | 00:00:00 | |
| WB7NNF | 2026-09-02 18:17:34 | 48.15769 | -117.59091 | 311° | 51km/h | 24539m | 2.5m/s | -50.3°C | 0% | 0hPa | 0V | 00:00:00 | 00:00:00 | 00:00:00 | |
| WB7NNF | 2026-09-02 18:17:12 | 48.15674 | -117.58936 | 335° | 13km/h | 24403m | 6.4m/s | -50.6°C | 0% | 0hPa | 0V | 00:00:00 | 00:00:00 | 00:00:00 | |
| WB7NNF | 2026-09-02 18:16:51 | 48.15588 | -117.58787 | 8° | 24km/h | 24290m | 5.0m/s | -50.0°C | 0% | 0hPa | 0V | 00:00:00 | 00:00:00 | 00:00:00 | |
| WB7NNF | 2026-09-02 18:16:31 | 48.15547 | -117.58619 | 242° | 46km/h | 24169m | 0.8m/s | -50.2°C | 0% | 0hPa | 0V | 00:00:00 | 00:00:00 | 00:00:00 | |
| WB7NNF | 2026-09-02 18:16:10 | 48.15577 | -117.58514 | 128° | 15km/h | 24060m | 7.1m/s | -50.6°C | 0% | 0hPa | 0V | 00:00:00 | 00:00:00 | 00:00:00 | |
| WB7NNF | 2026-09-02 18:15:50 | 48.15578 | -117.58466 | 287° | 49km/h | 23936m | 0.6m/s | -51.4°C | 0% | 0hPa | 0V | 00:00:00 | 00:00:00 | 00:00:00 | |
| WB7NNF | 2026-09-02 18:15:29 | 48.15574 | -117.58377 | 184° | 27km/h | 23816m | 2.3m/s | -51.7°C | 0% | 0hPa | 0V | 00:00:00 | 00:00:00 | 00:00:00 | |
| WB7NNF | 2026-09-02 18:15:09 | 48.15558 | -117.58308 | 285° | 49km/h | 23693m | 2.9m/s | -51.5°C | 0% | 0hPa | 0V | 00:00:00 | 00:00:00 | 00:00:00 | |
| WB7NNF | 2026-09-02 18:14:48 | 48.15558 | -117.58236 | 270° | 44km/h | 23571m | 2.1m/s | -51.7°C | 0% | 0hPa | 0V | 00:00:00 | 00:00:00 | 00:00:00 | |
| WB7NNF | 2026-09-02 18:14:28 | 48.15586 | -117.58171 | 118° | 26km/h | 23442m | 8.8m/s | -51.6°C | 0% | 0hPa | 0V | 00:00:00 | 00:00:00 | 00:00:00 | |
| WB7NNF | 2026-09-02 18:14:07 | 48.15580 | -117.58150 | 353° | 42km/h | 23316m | 2.9m/s | -51.6°C | 0% | 0hPa | 0V | 00:00:00 | 00:00:00 | 00:00:00 | |
| WB7NNF | 2026-09-02 18:13:47 | 48.15556 | -117.58156 | 250° | 27km/h | 23187m | 9.4m/s | -51.4°C | 0% | 0hPa | 0V | 00:00:00 | 00:00:00 | 00:00:00 | |
| WB7NNF | 2026-09-02 18:13:26 | 48.15560 | -117.58139 | 182° | 27km/h | 23063m | 0.4m/s | -51.2°C | 0% | 0hPa | 0V | 00:00:00 | 00:00:00 | 00:00:00 | |
| WB7NNF | 2026-09-02 18:13:06 | 48.15550 | -117.58037 | 16° | 31km/h | 22940m | 6.9m/s | -51.7°C | 0% | 0hPa | 0V | 00:00:00 | 00:00:00 | 00:00:00 | |
| WB7NNF | 2026-09-02 18:12:45 | 48.15580 | -117.57985 | 234° | 31km/h | 22819m | 7.2m/s | -51.1°C | 0% | 0hPa | 0V | 00:00:00 | 00:00:00 | 00:00:00 | |
| WB7NNF | 2026-09-02 18:12:24 | 48.15651 | -117.58024 | 104° | 26km/h | 22719m | 4.2m/s | -51.2°C | 0% | 0hPa | 0V | 00:00:00 | 00:00:00 | 00:00:00 | |
| WB7NNF | 2026-09-02 18:12:04 | 48.15671 | -117.58143 | 277° | 20km/h | 22606m | 9.1m/s | -51.7°C | 0% | 0hPa | 0V | 00:00:00 | 00:00:00 | 00:00:00 | |
| WB7NNF | 2026-09-02 18:11:43 | 48.15695 | -117.58247 | 160° | 35km/h | 22494m | 1.0m/s | -51.9°C | 0% | 0hPa | 0V | 00:00:00 | 00:00:00 | 00:00:00 | |
| WB7NNF | 2026-09-02 18:11:23 | 48.15721 | -117.58354 | 15° | 38km/h | 22378m | 9.2m/s | -52.4°C | 0% | 0hPa | 0V | 00:00:00 | 00:00:00 | 00:00:00 | |
| WB7NNF | 2026-09-02 18:11:02 | 48.15714 | -117.58396 | 270° | 18km/h | 22269m | 2.0m/s | -52.3°C | 0% | 0hPa | 0V | 00:00:00 | 00:00:00 | 00:00:00 | |
| WB7NNF | 2026-09-02 18:10:42 | 48.15746 | -117.58410 | 187° | 33km/h | 22154m | 3.9m/s | -51.6°C | 0% | 0hPa | 0V | 00:00:00 | 00:00:00 | 00:00:00 | |
| WB7NNF | 2026-09-02 18:10:21 | 48.15761 | -117.58483 | 355° | 27km/h | 22034m | 3.8m/s | -51.3°C | 0% | 0hPa | 0V | 00:00:00 | 00:00:00 | 00:00:00 | |
| WB7NNF | 2026-09-02 18:09:59 | 48.15765 | -117.58611 | 96° | 58km/h | 21911m | 6.3m/s | -51.1°C | 0% | 0hPa | 0V | 00:00:00 | 00:00:00 | 00:00:00 | |
| WB7NNF | 2026-09-02 18:09:38 | 48.15753 | -117.58829 | 78° | 55km/h | 21803m | 2.0m/s | -51.1°C | 0% | 0hPa | 0V | 00:00:00 | 00:00:00 | 00:00:00 | |
| WB7NNF | 2026-09-02 18:09:18 | 48.15730 | -117.59045 | 84° | 18km/h | 21697m | 5.9m/s | -52.6°C | 0% | 0hPa | 0V | 00:00:00 | 00:00:00 | 00:00:00 | |
| WB7NNF | 2026-09-02 18:08:57 | 48.15650 | -117.59276 | 51° | 75km/h | 21589m | 7.0m/s | -53.2°C | 0% | 0hPa | 0V | 00:00:00 | 00:00:00 | 00:00:00 | |
| WB7NNF | 2026-09-02 18:08:37 | 48.15540 | -117.59465 | 340° | 18km/h | 21481m | 8.3m/s | -53.3°C | 0% | 0hPa | 0V | 00:00:00 | 00:00:00 | 00:00:00 | |
| WB7NNF | 2026-09-02 18:08:16 | 48.15470 | -117.59595 | 50° | 27km/h | 21367m | 7.0m/s | -53.5°C | 0% | 0hPa | 0V | 00:00:00 | 00:00:00 | 00:00:00 | |
| WB7NNF | 2026-09-02 18:07:54 | 48.15375 | -117.59644 | 65° | 37km/h | 21244m | 9.4m/s | -53.1°C | 0% | 0hPa | 0V | 00:00:00 | 00:00:00 | 00:00:00 | |
| WB7NNF | 2026-09-02 18:07:33 | 48.15298 | -117.59677 | 358° | 37km/h | 21147m | 3.5m/s | -52.7°C | 0% | 0hPa | 0V | 00:00:00 | 00:00:00 | 00:00:00 | |
| WB7NNF | 2026-09-02 18:07:13 | 48.15242 | -117.59641 | 127° | 24km/h | 21026m | 1.1m/s | -51.8°C | 0% | 0hPa | 0V | 00:00:00 | 00:00:00 | 00:00:00 | |
| WB7NNF | 2026-09-02 18:06:51 | 48.15190 | -117.59654 | 327° | 31km/h | 20891m | 0.1m/s | -51.1°C | 0% | 0hPa | 0V | 00:00:00 | 00:00:00 | 00:00:00 | |
| WB7NNF | 2026-09-02 18:06:30 | 48.15135 | -117.59709 | 62° | 27km/h | 20768m | 5.1m/s | -51.1°C | 0% | 0hPa | 0V | 00:00:00 | 00:00:00 | 00:00:00 | |
| WB7NNF | 2026-09-02 18:06:09 | 48.15071 | -117.59823 | 30° | 46km/h | 20655m | 5.1m/s | -52.2°C | 0% | 0hPa | 0V | 00:00:00 | 00:00:00 | 00:00:00 | |
| WB7NNF | 2026-09-02 18:05:47 | 48.14932 | -117.59930 | 29° | 33km/h | 20521m | 8.2m/s | -52.5°C | 0% | 0hPa | 0V | 00:00:00 | 00:00:00 | 00:00:00 | |
| WB7NNF | 2026-09-02 18:05:26 | 48.14810 | -117.59942 | 320° | 20km/h | 20416m | 4.2m/s | -52.1°C | 0% | 0hPa | 0V | 00:00:00 | 00:00:00 | 00:00:00 | |
| WB7NNF | 2026-09-02 18:05:06 | 48.14700 | -117.59992 | 91° | 35km/h | 20296m | 4.0m/s | -51.7°C | 0% | 0hPa | 0V | 00:00:00 | 00:00:00 | 00:00:00 | |
| WB7NNF | 2026-09-02 18:04:45 | 48.14638 | -117.60062 | 348° | 35km/h | 20188m | -0.2m/s | -51.4°C | 0% | 0hPa | 0V | 00:00:00 | 00:00:00 | 00:00:00 | |
| WB7NNF | 2026-09-02 18:04:25 | 48.14560 | -117.60183 | 85° | 44km/h | 20084m | 4.1m/s | -51.3°C | 0% | 0hPa | 0V | 00:00:00 | 00:00:00 | 00:00:00 | |
| WB7NNF | 2026-09-02 18:04:03 | 48.14430 | -117.60297 | 59° | 29km/h | 19978m | 2.3m/s | -51.8°C | 0% | 0hPa | 0V | 00:00:00 | 00:00:00 | 00:00:00 | |
| WB7NNF | 2026-09-02 18:03:22 | 48.14214 | -117.60432 | 19° | 13km/h | 19755m | 4.5m/s | -52.5°C | 0% | 0hPa | 0V | 00:00:00 | 00:00:00 | 00:00:00 | |
| WB7NNF | 2026-09-02 18:03:01 | 48.14134 | -117.60398 | 7° | 46km/h | 19650m | 0.6m/s | -52.1°C | 0% | 0hPa | 0V | 00:00:00 | 00:00:00 | 00:00:00 | |
| WB7NNF | 2026-09-02 18:02:40 | 48.14072 | -117.60412 | 184° | 18km/h | 19544m | 7.3m/s | -51.8°C | 0% | 0hPa | 0V | 00:00:00 | 00:00:00 | 00:00:00 | |
| WB7NNF | 2026-09-02 18:02:20 | 48.14002 | -117.60475 | 36° | 55km/h | 19431m | 4.7m/s | -51.1°C | 0% | 0hPa | 0V | 00:00:00 | 00:00:00 | 00:00:00 | |
| WB7NNF | 2026-09-02 18:01:59 | 48.13920 | -117.60574 | 56° | 31km/h | 19330m | 6.0m/s | -50.5°C | 0% | 0hPa | 0V | 00:00:00 | 00:00:00 | 00:00:00 | |
| WB7NNF | 2026-09-02 18:01:39 | 48.13832 | -117.60698 | 53° | 37km/h | 19220m | 7.2m/s | -50.1°C | 0% | 0hPa | 0V | 00:00:00 | 00:00:00 | 00:00:00 | |
| WB7NNF | 2026-09-02 18:01:18 | 48.13738 | -117.60827 | 28° | 11km/h | 19120m | 2.4m/s | -50.6°C | 0% | 0hPa | 0V | 00:00:00 | 00:00:00 | 00:00:00 | |
| WB7NNF | 2026-09-02 18:00:37 | 48.13455 | -117.61199 | 84° | 68km/h | 18907m | 4.1m/s | -50.9°C | 0% | 0hPa | 0V | 00:00:00 | 00:00:00 | 00:00:00 | |
| WB7NNF | 2026-09-02 18:00:16 | 48.13316 | -117.61445 | 39° | 24km/h | 18808m | 6.7m/s | -51.6°C | 0% | 0hPa | 0V | 00:00:00 | 00:00:00 | 00:00:00 | |
| WB7NNF | 2026-09-02 17:59:56 | 48.13145 | -117.61692 | 67° | 53km/h | 18707m | 0.6m/s | -52.4°C | 0% | 0hPa | 0V | 00:00:00 | 00:00:00 | 00:00:00 | |
| WB7NNF | 2026-09-02 17:59:35 | 48.12943 | -117.61890 | 16° | 77km/h | 18606m | 0.4m/s | -52.4°C | 0% | 0hPa | 0V | 00:00:00 | 00:00:00 | 00:00:00 | |
| WB7NNF | 2026-09-02 17:59:11 | 48.12659 | -117.62076 | 38° | 58km/h | 18489m | 5.0m/s | -52.2°C | 0% | 0hPa | 0V | 00:00:00 | 00:00:00 | 00:00:00 | |
| WB7NNF | 2026-09-02 17:58:51 | 48.12452 | -117.62177 | 13° | 60km/h | 18384m | 8.0m/s | -51.4°C | 0% | 0hPa | 0V | 00:00:00 | 00:00:00 | 00:00:00 | |
| WB7NNF | 2026-09-02 17:58:30 | 48.12255 | -117.62238 | 352° | 18km/h | 18284m | 4.2m/s | -51.4°C | 0% | 0hPa | 0V | 00:00:00 | 00:00:00 | 00:00:00 | |
| WB7NNF | 2026-09-02 17:58:10 | 48.12083 | -117.62266 | 350° | 5km/h | 18179m | 1.7m/s | -50.9°C | 0% | 0hPa | 0V | 00:00:00 | 00:00:00 | 00:00:00 | |
| WB7NNF | 2026-09-02 17:57:49 | 48.11954 | -117.62268 | 19° | 35km/h | 18082m | 6.4m/s | -50.3°C | 0% | 0hPa | 0V | 00:00:00 | 00:00:00 | 00:00:00 | |
| WB7NNF | 2026-09-02 17:57:27 | 48.11856 | -117.62342 | 57° | 24km/h | 17963m | 0.5m/s | -50.4°C | 0% | 0hPa | 0V | 00:00:00 | 00:00:00 | 00:00:00 | |
| WB7NNF | 2026-09-02 17:57:06 | 48.11732 | -117.62451 | 24° | 40km/h | 17867m | 6.1m/s | -50.2°C | 0% | 0hPa | 0V | 00:00:00 | 00:00:00 | 00:00:00 | |
| WB7NNF | 2026-09-02 17:56:46 | 48.11550 | -117.62579 | 2° | 46km/h | 17760m | 3.5m/s | -50.0°C | 0% | 0hPa | 0V | 00:00:00 | 00:00:00 | 00:00:00 | |
| WB7NNF | 2026-09-02 17:56:25 | 48.11324 | -117.62706 | 38° | 82km/h | 17655m | 3.3m/s | -49.9°C | 0% | 0hPa | 0V | 00:00:00 | 00:00:00 | 00:00:00 | |
| WB7NNF | 2026-09-02 17:56:05 | 48.11086 | -117.62812 | 21° | 35km/h | 17555m | 5.5m/s | -49.2°C | 0% | 0hPa | 0V | 00:00:00 | 00:00:00 | 00:00:00 | |
| WB7NNF | 2026-09-02 17:55:44 | 48.10880 | -117.62902 | 350° | 33km/h | 17448m | 3.1m/s | -49.2°C | 0% | 0hPa | 0V | 00:00:00 | 00:00:00 | 00:00:00 | |
| WB7NNF | 2026-09-02 17:55:23 | 48.10655 | -117.62977 | 22° | 46km/h | 17350m | 4.8m/s | -49.2°C | 0% | 0hPa | 0V | 00:00:00 | 00:00:00 | 00:00:00 | |
| WB7NNF | 2026-09-02 17:55:03 | 48.10412 | -117.63031 | 44° | 60km/h | 17246m | 6.4m/s | -48.6°C | 0% | 0hPa | 0V | 00:00:00 | 00:00:00 | 00:00:00 | |
| WB7NNF | 2026-09-02 17:54:42 | 48.10202 | -117.63105 | 352° | 33km/h | 17148m | 2.7m/s | -48.5°C | 0% | 0hPa | 0V | 00:00:00 | 00:00:00 | 00:00:00 | |
| WB7NNF | 2026-09-02 17:54:22 | 48.09984 | -117.63151 | 19° | 44km/h | 17042m | 6.6m/s | -48.2°C | 0% | 0hPa | 0V | 00:00:00 | 00:00:00 | 00:00:00 | |
| WB7NNF | 2026-09-02 17:54:01 | 48.09773 | -117.63196 | 352° | 33km/h | 16945m | 4.1m/s | -48.1°C | 0% | 0hPa | 0V | 00:00:00 | 00:00:00 | 00:00:00 | |
| WB7NNF | 2026-09-02 17:53:41 | 48.09545 | -117.63293 | 3° | 29km/h | 16850m | 5.1m/s | -48.4°C | 0% | 0hPa | 0V | 00:00:00 | 00:00:00 | 00:00:00 | |
| WB7NNF | 2026-09-02 17:53:20 | 48.09375 | -117.63435 | 35° | 37km/h | 16763m | 6.3m/s | -48.9°C | 0% | 0hPa | 0V | 00:00:00 | 00:00:00 | 00:00:00 | |
| WB7NNF | 2026-09-02 17:53:00 | 48.09182 | -117.63621 | 33° | 49km/h | 16673m | 4.8m/s | -48.8°C | 0% | 0hPa | 0V | 00:00:00 | 00:00:00 | 00:00:00 | |
| WB7NNF | 2026-09-02 17:52:39 | 48.08965 | -117.63860 | 47° | 77km/h | 16591m | 1.2m/s | -49.5°C | 0% | 0hPa | 0V | 00:00:00 | 00:00:00 | 00:00:00 | |
| WB7NNF | 2026-09-02 17:52:19 | 48.08717 | -117.64109 | 30° | 49km/h | 16495m | 4.9m/s | -48.9°C | 0% | 0hPa | 0V | 00:00:00 | 00:00:00 | 00:00:00 | |
| WB7NNF | 2026-09-02 17:51:58 | 48.08479 | -117.64298 | 7° | 44km/h | 16407m | 2.0m/s | -49.6°C | 0% | 0hPa | 0V | 00:00:00 | 00:00:00 | 00:00:00 | |
| WB7NNF | 2026-09-02 17:51:38 | 48.08224 | -117.64413 | 342° | 46km/h | 16309m | 1.7m/s | -49.8°C | 0% | 0hPa | 0V | 00:00:00 | 00:00:00 | 00:00:00 | |
| WB7NNF | 2026-09-02 17:51:17 | 48.07978 | -117.64540 | 21° | 40km/h | 16211m | 5.6m/s | -49.2°C | 0% | 0hPa | 0V | 00:00:00 | 00:00:00 | 00:00:00 | |
| WB7NNF | 2026-09-02 17:50:56 | 48.07792 | -117.64703 | 49° | 42km/h | 16117m | 5.4m/s | -48.8°C | 0% | 0hPa | 0V | 00:00:00 | 00:00:00 | 00:00:00 | |
| WB7NNF | 2026-09-02 17:50:36 | 48.07633 | -117.64899 | 49° | 66km/h | 16015m | 2.9m/s | -49.1°C | 0% | 0hPa | 0V | 00:00:00 | 00:00:00 | 00:00:00 | |
| WB7NNF | 2026-09-02 17:49:55 | 48.07233 | -117.65317 | 16° | 60km/h | 15817m | 5.7m/s | -48.4°C | 0% | 0hPa | 0V | 00:00:00 | 00:00:00 | 00:00:00 | |
| WB7NNF | 2026-09-02 17:49:34 | 48.06984 | -117.65535 | 24° | 38km/h | 15722m | 3.0m/s | -48.7°C | 0% | 0hPa | 0V | 00:00:00 | 00:00:00 | 00:00:00 | |
| WB7NNF | 2026-09-02 17:49:14 | 48.06677 | -117.65688 | 26° | 44km/h | 15620m | 3.0m/s | -48.5°C | 0% | 0hPa | 0V | 00:00:00 | 00:00:00 | 00:00:00 | |
| WB7NNF | 2026-09-02 17:48:53 | 48.06411 | -117.65790 | 24° | 69km/h | 15526m | 2.9m/s | -49.0°C | 0% | 0hPa | 0V | 00:00:00 | 00:00:00 | 00:00:00 | |
| WB7NNF | 2026-09-02 17:48:33 | 48.06156 | -117.65837 | 13° | 62km/h | 15425m | 3.3m/s | -49.1°C | 0% | 0hPa | 0V | 00:00:00 | 00:00:00 | 00:00:00 | |
| WB7NNF | 2026-09-02 17:48:12 | 48.05912 | -117.65958 | 17° | 68km/h | 15324m | 1.2m/s | -48.5°C | 0% | 0hPa | 0V | 00:00:00 | 00:00:00 | 00:00:00 | |
| WB7NNF | 2026-09-02 17:47:48 | 48.05632 | -117.66132 | 29° | 31km/h | 15208m | 4.9m/s | -49.0°C | 0% | 0hPa | 0V | 00:00:00 | 00:00:00 | 00:00:00 | |
| WB7NNF | 2026-09-02 17:47:27 | 48.05427 | -117.66227 | 358° | 37km/h | 15110m | 3.2m/s | -48.6°C | 0% | 0hPa | 0V | 00:00:00 | 00:00:00 | 00:00:00 | |
| WB7NNF | 2026-09-02 17:47:07 | 48.05217 | -117.66283 | 20° | 42km/h | 15010m | 5.8m/s | -48.5°C | 0% | 0hPa | 0V | 00:00:00 | 00:00:00 | 00:00:00 | |
| WB7NNF | 2026-09-02 17:46:45 | 48.04998 | -117.66385 | 15° | 38km/h | 14904m | 7.7m/s | -48.8°C | 0% | 0hPa | 0V | 00:00:00 | 00:00:00 | 00:00:00 | |
| WB7NNF | 2026-09-02 17:46:24 | 48.04779 | -117.66519 | 47° | 62km/h | 14809m | 4.6m/s | -48.4°C | 0% | 0hPa | 0V | 00:00:00 | 00:00:00 | 00:00:00 | |
| WB7NNF | 2026-09-02 17:46:03 | 48.04552 | -117.66683 | 51° | 53km/h | 14709m | 2.8m/s | -48.7°C | 0% | 0hPa | 0V | 00:00:00 | 00:00:00 | 00:00:00 | |
| WB7NNF | 2026-09-02 17:45:43 | 48.04360 | -117.66866 | 49° | 55km/h | 14609m | 5.5m/s | -49.0°C | 0% | 0hPa | 0V | 00:00:00 | 00:00:00 | 00:00:00 | |
| WB7NNF | 2026-09-02 17:45:22 | 48.04120 | -117.67081 | 43° | 64km/h | 14508m | 4.4m/s | -49.4°C | 0% | 0hPa | 0V | 00:00:00 | 00:00:00 | 00:00:00 | |
| WB7NNF | 2026-09-02 17:45:00 | 48.03873 | -117.67265 | 25° | 60km/h | 14397m | 5.3m/s | -50.1°C | 0% | 0hPa | 0V | 00:00:00 | 00:00:00 | 00:00:00 | |
| WB7NNF | 2026-09-02 17:44:38 | 48.03559 | -117.67438 | 10° | 55km/h | 14293m | 5.3m/s | -49.8°C | 0% | 0hPa | 0V | 00:00:00 | 00:00:00 | 00:00:00 | |
| WB7NNF | 2026-09-02 17:44:17 | 48.03263 | -117.67613 | 23° | 51km/h | 14205m | 4.3m/s | -49.5°C | 0% | 0hPa | 0V | 00:00:00 | 00:00:00 | 00:00:00 | |
| WB7NNF | 2026-09-02 17:43:57 | 48.02945 | -117.67825 | 26° | 53km/h | 14113m | 5.5m/s | -49.5°C | 0% | 0hPa | 0V | 00:00:00 | 00:00:00 | 00:00:00 | |
| WB7NNF | 2026-09-02 17:43:36 | 48.02642 | -117.68019 | 29° | 57km/h | 14025m | 4.1m/s | -48.8°C | 0% | 0hPa | 0V | 00:00:00 | 00:00:00 | 00:00:00 | |
| WB7NNF | 2026-09-02 17:43:15 | 48.02351 | -117.68191 | 39° | 69km/h | 13937m | 3.0m/s | -48.3°C | 0% | 0hPa | 0V | 00:00:00 | 00:00:00 | 00:00:00 | |
| WB7NNF | 2026-09-02 17:42:52 | 48.02042 | -117.68336 | 8° | 66km/h | 13839m | 4.2m/s | -48.2°C | 0% | 0hPa | 0V | 00:00:00 | 00:00:00 | 00:00:00 | |
| WB7NNF | 2026-09-02 17:42:31 | 48.01760 | -117.68387 | 8° | 53km/h | 13757m | 4.9m/s | -48.5°C | 0% | 0hPa | 0V | 00:00:00 | 00:00:00 | 00:00:00 | |
| WB7NNF | 2026-09-02 17:42:06 | 48.01425 | -117.68482 | 17° | 58km/h | 13656m | 6.1m/s | -48.8°C | 0% | 0hPa | 0V | 00:00:00 | 00:00:00 | 00:00:00 | |
| WB7NNF | 2026-09-02 17:41:46 | 48.01145 | -117.68597 | 30° | 51km/h | 13570m | 2.7m/s | -48.3°C | 0% | 0hPa | 0V | 00:00:00 | 00:00:00 | 00:00:00 | |
| WB7NNF | 2026-09-02 17:41:25 | 48.00872 | -117.68710 | 15° | 35km/h | 13483m | 5.1m/s | -48.4°C | 0% | 0hPa | 0V | 00:00:00 | 00:00:00 | 00:00:00 | |
| WB7NNF | 2026-09-02 17:41:05 | 48.00630 | -117.68842 | 30° | 38km/h | 13390m | 6.4m/s | -49.0°C | 0% | 0hPa | 0V | 00:00:00 | 00:00:00 | 00:00:00 | |
| WB7NNF | 2026-09-02 17:40:44 | 48.00399 | -117.69012 | 20° | 66km/h | 13301m | 3.3m/s | -49.0°C | 0% | 0hPa | 0V | 00:00:00 | 00:00:00 | 00:00:00 | |
| WB7NNF | 2026-09-02 17:40:22 | 48.00167 | -117.69179 | 19° | 26km/h | 13194m | 4.3m/s | -49.8°C | 0% | 0hPa | 0V | 00:00:00 | 00:00:00 | 00:00:00 | |
| WB7NNF | 2026-09-02 17:40:01 | 47.99949 | -117.69337 | 37° | 55km/h | 13098m | 3.7m/s | -49.6°C | 0% | 0hPa | 0V | 00:00:00 | 00:00:00 | 00:00:00 | |
| WB7NNF | 2026-09-02 17:39:41 | 47.99669 | -117.69498 | 28° | 69km/h | 12999m | 4.5m/s | -49.2°C | 0% | 0hPa | 0V | 00:00:00 | 00:00:00 | 00:00:00 | |
| WB7NNF | 2026-09-02 17:39:20 | 47.99366 | -117.69658 | 26° | 64km/h | 12907m | 6.0m/s | -49.2°C | 0% | 0hPa | 0V | 00:00:00 | 00:00:00 | 00:00:00 | |
| WB7NNF | 2026-09-02 17:39:00 | 47.99051 | -117.69790 | 16° | 55km/h | 12812m | 4.8m/s | -50.0°C | 0% | 0hPa | 0V | 00:00:00 | 00:00:00 | 00:00:00 | |
| WB7NNF | 2026-09-02 17:38:39 | 47.98755 | -117.69902 | 6° | 68km/h | 12717m | 3.9m/s | -50.3°C | 0% | 0hPa | 0V | 00:00:00 | 00:00:00 | 00:00:00 | |
| WB7NNF | 2026-09-02 17:38:19 | 47.98406 | -117.70007 | 12° | 73km/h | 12617m | 4.3m/s | -49.9°C | 0% | 0hPa | 0V | 00:00:00 | 00:00:00 | 00:00:00 | |
| WB7NNF | 2026-09-02 17:37:58 | 47.98095 | -117.70062 | 17° | 77km/h | 12521m | 4.7m/s | -50.3°C | 0% | 0hPa | 0V | 00:00:00 | 00:00:00 | 00:00:00 | |
| WB7NNF | 2026-09-02 17:37:38 | 47.97783 | -117.70157 | 7° | 58km/h | 12421m | 5.7m/s | -49.9°C | 0% | 0hPa | 0V | 00:00:00 | 00:00:00 | 00:00:00 | |
| WB7NNF | 2026-09-02 17:37:17 | 47.97485 | -117.70261 | 357° | 60km/h | 12329m | 5.4m/s | -49.6°C | 0% | 0hPa | 0V | 00:00:00 | 00:00:00 | 00:00:00 | |
| WB7NNF | 2026-09-02 17:36:57 | 47.97175 | -117.70347 | 2° | 55km/h | 12229m | 3.5m/s | -49.9°C | 0% | 0hPa | 0V | 00:00:00 | 00:00:00 | 00:00:00 | |
| WB7NNF | 2026-09-02 17:36:36 | 47.96886 | -117.70374 | 9° | 55km/h | 12125m | 3.8m/s | -50.3°C | 0% | 0hPa | 0V | 00:00:00 | 00:00:00 | 00:00:00 | |
| WB7NNF | 2026-09-02 17:36:16 | 47.96652 | -117.70360 | 341° | 55km/h | 12029m | 6.5m/s | -50.9°C | 0% | 0hPa | 0V | 00:00:00 | 00:00:00 | 00:00:00 | |
| WB7NNF | 2026-09-02 17:35:55 | 47.96433 | -117.70360 | 357° | 47km/h | 11924m | 3.1m/s | -50.7°C | 0% | 0hPa | 0V | 00:00:00 | 00:00:00 | 00:00:00 | |
| WB7NNF | 2026-09-02 17:35:34 | 47.96214 | -117.70404 | 6° | 37km/h | 11830m | 3.6m/s | -50.8°C | 0% | 0hPa | 0V | 00:00:00 | 00:00:00 | 00:00:00 | |
| WB7NNF | 2026-09-02 17:35:14 | 47.95977 | -117.70459 | 26° | 44km/h | 11728m | 6.6m/s | -51.3°C | 0% | 0hPa | 0V | 00:00:00 | 00:00:00 | 00:00:00 | |
| WB7NNF | 2026-09-02 17:34:53 | 47.95751 | -117.70504 | 9° | 38km/h | 11641m | 4.3m/s | -50.8°C | 0% | 0hPa | 0V | 00:00:00 | 00:00:00 | 00:00:00 | |
| WB7NNF | 2026-09-02 17:34:33 | 47.95514 | -117.70536 | 11° | 46km/h | 11556m | 4.8m/s | -51.2°C | 0% | 0hPa | 0V | 00:00:00 | 00:00:00 | 00:00:00 | |
| WB7NNF | 2026-09-02 17:34:12 | 47.95278 | -117.70618 | 13° | 66km/h | 11486m | 2.7m/s | -53.2°C | 0% | 0hPa | 0V | 00:00:00 | 00:00:00 | 00:00:00 | |
| WB7NNF | 2026-09-02 17:33:52 | 47.94995 | -117.70780 | 21° | 78km/h | 11406m | 3.6m/s | -53.0°C | 0% | 0hPa | 0V | 00:00:00 | 00:00:00 | 00:00:00 | |
| WB7NNF | 2026-09-02 17:33:31 | 47.94690 | -117.70976 | 10° | 71km/h | 11330m | 2.8m/s | -52.5°C | 0% | 0hPa | 0V | 00:00:00 | 00:00:00 | 00:00:00 | |
| WB7NNF | 2026-09-02 17:33:11 | 47.94348 | -117.71181 | 12° | 73km/h | 11211m | 5.9m/s | -54.5°C | 0% | 0hPa | 0V | 00:00:00 | 00:00:00 | 00:00:00 | |
| WB7NNF | 2026-09-02 17:32:50 | 47.93846 | -117.71345 | 15° | 119km/h | 11069m | 6.6m/s | -54.7°C | 0% | 0hPa | 0V | 00:00:00 | 00:00:00 | 00:00:00 | |
| WB7NNF | 2026-09-02 17:32:30 | 47.93253 | -117.71409 | 13° | 131km/h | 10937m | 6.8m/s | -54.3°C | 0% | 0hPa | 0V | 00:00:00 | 00:00:00 | 00:00:00 | |
| WB7NNF | 2026-09-02 17:32:09 | 47.92717 | -117.71499 | 355° | 137km/h | 10804m | 8.2m/s | -53.4°C | 0% | 0hPa | 0V | 00:00:00 | 00:00:00 | 00:00:00 | |
| WB7NNF | 2026-09-02 17:31:49 | 47.92093 | -117.71441 | 359° | 128km/h | 10644m | 8.8m/s | -52.7°C | 0% | 0hPa | 0V | 00:00:00 | 00:00:00 | 00:00:00 | |
| WB7NNF | 2026-09-02 17:31:28 | 47.91428 | -117.71310 | 342° | 108km/h | 10494m | 7.7m/s | -51.4°C | 0% | 0hPa | 0V | 00:00:00 | 00:00:00 | 00:00:00 | |
| WB7NNF | 2026-09-02 17:31:06 | 47.90842 | -117.71131 | 356° | 153km/h | 10358m | 6.3m/s | -50.3°C | 0% | 0hPa | 0V | 00:00:00 | 00:00:00 | 00:00:00 | |
| WB7NNF | 2026-09-02 17:30:45 | 47.90169 | -117.70780 | 334° | 142km/h | 10210m | 4.6m/s | -50.6°C | 0% | 0hPa | 0V | 00:00:00 | 00:00:00 | 00:00:00 | |
| WB7NNF | 2026-09-02 17:30:23 | 47.89531 | -117.70374 | 342° | 137km/h | 10084m | 3.9m/s | -49.8°C | 0% | 0hPa | 0V | 00:00:00 | 00:00:00 | 00:00:00 | |
| WB7NNF | 2026-09-02 17:29:42 | 47.88290 | -117.69531 | 341° | 139km/h | 9871m | 3.8m/s | -48.3°C | 0% | 0hPa | 0V | 00:00:00 | 00:00:00 | 00:00:00 | |
| WB7NNF | 2026-09-02 17:29:19 | 47.87661 | -117.69150 | 336° | 111km/h | 9776m | 4.4m/s | -47.6°C | 0% | 0hPa | 0V | 00:00:00 | 00:00:00 | 00:00:00 | |
| WB7NNF | 2026-09-02 17:28:59 | 47.87075 | -117.68800 | 337° | 133km/h | 9688m | 3.9m/s | -46.9°C | 0% | 0hPa | 0V | 00:00:00 | 00:00:00 | 00:00:00 | |
| WB7NNF | 2026-09-02 17:28:37 | 47.86516 | -117.68485 | 346° | 104km/h | 9594m | 5.4m/s | -46.4°C | 0% | 0hPa | 0V | 00:00:00 | 00:00:00 | 00:00:00 | |
| WB7NNF | 2026-09-02 17:28:16 | 47.85982 | -117.68200 | 338° | 120km/h | 9481m | 4.2m/s | -45.5°C | 0% | 0hPa | 0V | 00:00:00 | 00:00:00 | 00:00:00 | |
| WB7NNF | 2026-09-02 17:27:56 | 47.85484 | -117.67914 | 340° | 111km/h | 9387m | 5.7m/s | -44.6°C | 0% | 0hPa | 0V | 00:00:00 | 00:00:00 | 00:00:00 | |
| WB7NNF | 2026-09-02 17:27:35 | 47.85023 | -117.67643 | 338° | 99km/h | 9292m | 5.6m/s | -43.9°C | 0% | 0hPa | 0V | 00:00:00 | 00:00:00 | 00:00:00 | |
| WB7NNF | 2026-09-02 17:27:14 | 47.84568 | -117.67392 | 342° | 104km/h | 9187m | 5.9m/s | -43.3°C | 0% | 0hPa | 0V | 00:00:00 | 00:00:00 | 00:00:00 | |
| WB7NNF | 2026-09-02 17:26:54 | 47.84127 | -117.67176 | 343° | 100km/h | 9087m | 4.8m/s | -42.5°C | 0% | 0hPa | 0V | 00:00:00 | 00:00:00 | 00:00:00 | |
| WB7NNF | 2026-09-02 17:26:33 | 47.83690 | -117.66971 | 332° | 95km/h | 8987m | 3.7m/s | -41.8°C | 0% | 0hPa | 0V | 00:00:00 | 00:00:00 | 00:00:00 | |
| WB7NNF | 2026-09-02 17:26:12 | 47.83280 | -117.66782 | 354° | 88km/h | 8888m | 3.5m/s | -40.9°C | 0% | 0hPa | 0V | 00:00:00 | 00:00:00 | 00:00:00 | |
| WB7NNF | 2026-09-02 17:25:30 | 47.82414 | -117.66495 | 351° | 75km/h | 8681m | 5.1m/s | -39.2°C | 0% | 0hPa | 0V | 00:00:00 | 00:00:00 | 00:00:00 | |
| WB7NNF | 2026-09-02 17:25:09 | 47.82029 | -117.66272 | 341° | 68km/h | 8550m | 8.6m/s | -38.1°C | 0% | 0hPa | 0V | 00:00:00 | 00:00:00 | 00:00:00 | |
| WB7NNF | 2026-09-02 17:24:47 | 47.81679 | -117.66112 | 339° | 62km/h | 8430m | 6.2m/s | -37.1°C | 0% | 0hPa | 0V | 00:00:00 | 00:00:00 | 00:00:00 | |
| WB7NNF | 2026-09-02 17:24:24 | 47.81297 | -117.65907 | 361° | 80km/h | 8288m | 4.6m/s | -35.8°C | 0% | 0hPa | 0V | 00:00:00 | 00:00:00 | 00:00:00 | |
| WB7NNF | 2026-09-02 17:24:04 | 47.80903 | -117.65690 | 333° | 97km/h | 8170m | 4.9m/s | -34.8°C | 0% | 0hPa | 0V | 00:00:00 | 00:00:00 | 00:00:00 | |
| WB7NNF | 2026-09-02 17:23:43 | 47.80547 | -117.65456 | 330° | 88km/h | 8047m | 5.2m/s | -33.7°C | 0% | 0hPa | 0V | 00:00:00 | 00:00:00 | 00:00:00 | |
| WB7NNF | 2026-09-02 17:23:23 | 47.80184 | -117.65214 | 335° | 78km/h | 7941m | 6.4m/s | -33.0°C | 0% | 0hPa | 0V | 00:00:00 | 00:00:00 | 00:00:00 | |
| WB7NNF | 2026-09-02 17:23:02 | 47.79832 | -117.64959 | 320° | 73km/h | 7832m | 4.1m/s | -32.1°C | 0% | 0hPa | 0V | 00:00:00 | 00:00:00 | 00:00:00 | |
| WB7NNF | 2026-09-02 17:22:32 | 47.79368 | -117.64618 | 341° | 71km/h | 7666m | 7.4m/s | -31.2°C | 0% | 0hPa | 0V | 00:00:00 | 00:00:00 | 00:00:00 | |
| WB7NNF | 2026-09-02 17:22:12 | 47.78964 | -117.64368 | 335° | 102km/h | 7536m | 4.8m/s | -30.2°C | 0% | 0hPa | 0V | 00:00:00 | 00:00:00 | 00:00:00 | |
| WB7NNF | 2026-09-02 17:21:46 | 47.78489 | -117.64106 | 332° | 97km/h | 7360m | 7.8m/s | -28.6°C | 0% | 0hPa | 0V | 00:00:00 | 00:00:00 | 00:00:00 | |
| WB7NNF | 2026-09-02 17:21:25 | 47.78075 | -117.63936 | 352° | 75km/h | 7227m | 7.3m/s | -27.5°C | 0% | 0hPa | 0V | 00:00:00 | 00:00:00 | 00:00:00 | |
| WB7NNF | 2026-09-02 17:21:03 | 47.77706 | -117.63716 | 325° | 88km/h | 7100m | 2.4m/s | -26.4°C | 0% | 0hPa | 0V | 00:00:00 | 00:00:00 | 00:00:00 | |
| WB7NNF | 2026-09-02 17:20:40 | 47.77293 | -117.63503 | 330° | 93km/h | 6956m | 6.3m/s | -25.4°C | 0% | 0hPa | 0V | 00:00:00 | 00:00:00 | 00:00:00 | |
| WB7NNF | 2026-09-02 17:20:20 | 47.76919 | -117.63260 | 343° | 53km/h | 6835m | 4.4m/s | -24.5°C | 0% | 0hPa | 0V | 00:00:00 | 00:00:00 | 00:00:00 | |
| WB7NNF | 2026-09-02 17:19:59 | 47.76612 | -117.63063 | 331° | 60km/h | 6720m | 5.9m/s | -23.5°C | 0% | 0hPa | 0V | 00:00:00 | 00:00:00 | 00:00:00 | |
| WB7NNF | 2026-09-02 17:19:32 | 47.76207 | -117.62817 | 352° | 51km/h | 6548m | 4.3m/s | -22.4°C | 0% | 0hPa | 0V | 00:00:00 | 00:00:00 | 00:00:00 | |
| WB7NNF | 2026-09-02 17:19:09 | 47.75970 | -117.62629 | 355° | 46km/h | 6448m | 4.1m/s | -21.8°C | 0% | 0hPa | 0V | 00:00:00 | 00:00:00 | 00:00:00 | |
| WB7NNF | 2026-09-02 17:18:49 | 47.75764 | -117.62414 | 325° | 42km/h | 6333m | 7.6m/s | -21.1°C | 0% | 0hPa | 0V | 00:00:00 | 00:00:00 | 00:00:00 | |
| WB7NNF | 2026-09-02 17:18:28 | 47.75595 | -117.62175 | 304° | 68km/h | 6205m | 4.1m/s | -20.2°C | 0% | 0hPa | 0V | 00:00:00 | 00:00:00 | 00:00:00 | |
| WB7NNF | 2026-09-02 17:18:07 | 47.75429 | -117.61928 | 300° | 60km/h | 6094m | 3.8m/s | -19.4°C | 0% | 0hPa | 0V | 00:00:00 | 00:00:00 | 00:00:00 | |
| WB7NNF | 2026-09-02 17:17:47 | 47.75266 | -117.61651 | 322° | 33km/h | 5981m | 7.5m/s | -18.6°C | 0% | 0hPa | 0V | 00:00:00 | 00:00:00 | 00:00:00 | |
| WB7NNF | 2026-09-02 17:17:26 | 47.75108 | -117.61426 | 317° | 58km/h | 5862m | 4.8m/s | -18.0°C | 0% | 0hPa | 0V | 00:00:00 | 00:00:00 | 00:00:00 | |
| WB7NNF | 2026-09-02 17:17:04 | 47.74930 | -117.61210 | 331° | 49km/h | 5724m | 5.8m/s | -17.0°C | 0% | 0hPa | 0V | 00:00:00 | 00:00:00 | 00:00:00 | |
| WB7NNF | 2026-09-02 17:16:42 | 47.74751 | -117.60969 | 331° | 40km/h | 5592m | 5.1m/s | -16.0°C | 0% | 0hPa | 0V | 00:00:00 | 00:00:00 | 00:00:00 | |
| WB7NNF | 2026-09-02 17:16:21 | 47.74585 | -117.60709 | 301° | 26km/h | 5464m | 5.9m/s | -15.0°C | 0% | 0hPa | 0V | 00:00:00 | 00:00:00 | 00:00:00 | |
| WB7NNF | 2026-09-02 17:15:59 | 47.74431 | -117.60423 | 294° | 37km/h | 5339m | 4.6m/s | -14.2°C | 0% | 0hPa | 0V | 00:00:00 | 00:00:00 | 00:00:00 | |
| WB7NNF | 2026-09-02 17:15:38 | 47.74281 | -117.60147 | 321° | 68km/h | 5238m | 5.1m/s | -13.4°C | 0% | 0hPa | 0V | 00:00:00 | 00:00:00 | 00:00:00 | |
| WB7NNF | 2026-09-02 17:15:17 | 47.74119 | -117.59920 | 301° | 38km/h | 5105m | 5.4m/s | -12.9°C | 0% | 0hPa | 0V | 00:00:00 | 00:00:00 | 00:00:00 | |
| WB7NNF | 2026-09-02 17:14:57 | 47.73962 | -117.59769 | 12° | 31km/h | 4987m | 1.6m/s | -12.7°C | 0% | 0hPa | 0V | 00:00:00 | 00:00:00 | 00:00:00 | |
| WB7NNF | 2026-09-02 17:14:36 | 47.73817 | -117.59782 | 339° | 15km/h | 4885m | 4.3m/s | -12.1°C | 0% | 0hPa | 0V | 00:00:00 | 00:00:00 | 00:00:00 | |
| WB7NNF | 2026-09-02 17:14:16 | 47.73623 | -117.59810 | 361° | 26km/h | 4780m | 3.9m/s | -11.3°C | 0% | 0hPa | 0V | 00:00:00 | 00:00:00 | 00:00:00 | |
| WB7NNF | 2026-09-02 17:13:55 | 47.73459 | -117.59899 | 337° | 27km/h | 4696m | 6.0m/s | -10.5°C | 0% | 0hPa | 0V | 00:00:00 | 00:00:00 | 00:00:00 | |
| WB7NNF | 2026-09-02 17:13:33 | 47.73235 | -117.60000 | 8° | 77km/h | 4576m | 5.3m/s | -9.7°C | 0% | 0hPa | 0V | 00:00:00 | 00:00:00 | 00:00:00 | |
| WB7NNF | 2026-09-02 17:13:13 | 47.72969 | -117.60128 | 8° | 55km/h | 4439m | 7.0m/s | -9.1°C | 0% | 0hPa | 0V | 00:00:00 | 00:00:00 | 00:00:00 | |
| WB7NNF | 2026-09-02 17:12:50 | 47.72690 | -117.60334 | 20° | 37km/h | 4284m | 4.9m/s | -8.5°C | 0% | 0hPa | 0V | 00:00:00 | 00:00:00 | 00:00:00 |